Time;durP1;ratioP1;P1;durP2;ratioP2;P2;SDS_P1;SDS_P2;PMS_P1;PMS_P2;Temp;Humidity;BMP_temperature;BMP_pressure;BME280_temperature;BME280_humidity;BME280_pressure;Samples;Min_cycle;Max_cycle;Signal;HPM_P1;HPM_P2
2022/07/22 00:01:17;;;;;;;14.87;4.40;;;16.40;99.90;;;;;;5032129;28;20036;-78
2022/07/22 00:03:42;;;;;;;19.67;4.73;;;16.40;99.90;;;;;;5038844;28;20082;-78
2022/07/22 00:06:08;;;;;;;13.70;4.23;;;16.40;99.90;;;;;;5060376;28;20048;-78
2022/07/22 00:08:34;;;;;;;10.93;4.30;;;16.40;99.90;;;;;;5049566;28;20547;-78
2022/07/22 00:11:00;;;;;;;16.50;4.90;;;16.40;99.90;;;;;;5045485;28;20091;-78
2022/07/22 00:13:27;;;;;;;14.17;5.00;;;16.40;99.90;;;;;;5030540;28;20037;-78
2022/07/22 00:15:53;;;;;;;14.77;5.13;;;16.40;99.90;;;;;;5046030;28;20064;-78
2022/07/22 00:18:18;;;;;;;17.33;5.43;;;16.40;99.90;;;;;;5065230;28;20072;-78
2022/07/22 00:20:44;;;;;;;12.23;4.60;;;16.40;99.90;;;;;;5043756;28;20033;-78
2022/07/22 00:23:10;;;;;;;13.60;4.87;;;16.40;99.90;;;;;;5064927;28;20090;-78
2022/07/22 00:25:36;;;;;;;19.63;5.23;;;16.40;99.90;;;;;;5045071;28;20086;-79
2022/07/22 00:28:01;;;;;;;23.90;5.67;;;16.40;99.90;;;;;;5047577;28;20492;-78
2022/07/22 00:30:28;;;;;;;19.30;5.37;;;16.40;99.90;;;;;;5062433;28;20518;-78
2022/07/22 00:32:54;;;;;;;16.47;4.73;;;16.40;99.90;;;;;;5048449;28;20051;-78
2022/07/22 00:35:20;;;;;;;13.97;4.60;;;16.40;99.90;;;;;;5063905;28;20044;-78
2022/07/22 00:37:46;;;;;;;18.87;4.70;;;16.40;99.90;;;;;;5047994;28;20492;-78
2022/07/22 00:40:13;;;;;;;11.57;4.30;;;16.40;99.90;;;;;;5061515;28;20035;-78
2022/07/22 00:42:39;;;;;;;13.53;4.80;;;16.30;99.90;;;;;;5047134;28;20412;-77
2022/07/22 00:45:06;;;;;;;18.50;4.93;;;16.30;99.90;;;;;;5064124;28;20495;-77
2022/07/22 00:47:35;;;;;;;12.57;4.33;;;16.30;99.90;;;;;;5044642;28;20044;-77
2022/07/22 00:50:01;;;;;;;14.83;5.10;;;16.30;99.90;;;;;;5043518;28;20121;-77
2022/07/22 00:52:27;;;;;;;20.93;4.73;;;16.30;99.90;;;;;;5029713;28;20412;-77
2022/07/22 00:54:54;;;;;;;19.10;4.30;;;16.30;99.90;;;;;;5045971;28;20044;-77
2022/07/22 00:57:20;;;;;;;12.77;4.03;;;16.20;99.90;;;;;;5047140;28;20130;-77
2022/07/22 00:59:45;;;;;;;16.13;4.00;;;16.20;99.90;;;;;;5061950;28;20111;-77
2022/07/22 01:02:11;;;;;;;15.33;4.33;;;16.20;99.90;;;;;;5064343;28;20045;-78
2022/07/22 01:04:39;;;;;;;15.40;4.30;;;16.20;99.90;;;;;;5064152;28;20043;-78
2022/07/22 01:07:05;;;;;;;17.80;4.17;;;16.20;99.90;;;;;;5044189;28;20131;-77
2022/07/22 01:09:31;;;;;;;17.53;4.20;;;16.20;99.90;;;;;;5044842;28;20567;-78
2022/07/22 01:11:57;;;;;;;18.63;4.30;;;16.20;99.90;;;;;;5044790;28;20037;-78
2022/07/22 01:14:22;;;;;;;21.67;4.37;;;16.20;99.90;;;;;;5031906;28;20150;-78
2022/07/22 01:16:49;;;;;;;11.50;3.83;;;16.20;99.90;;;;;;5046459;28;20488;-78
2022/07/22 01:19:14;;;;;;;12.93;3.70;;;16.20;99.90;;;;;;5043004;28;20469;-78
2022/07/22 01:21:42;;;;;;;11.90;3.90;;;16.20;99.90;;;;;;5044726;28;20128;-78
2022/07/22 01:24:08;;;;;;;19.53;3.57;;;16.20;99.90;;;;;;5064242;28;20056;-79
2022/07/22 01:26:34;;;;;;;20.83;4.77;;;16.20;99.90;;;;;;5046663;28;20056;-78
2022/07/22 01:29:00;;;;;;;13.10;3.73;;;16.20;99.90;;;;;;5046280;28;20538;-78
2022/07/22 01:31:27;;;;;;;16.17;4.00;;;16.20;99.90;;;;;;5062047;28;20085;-77
2022/07/22 01:33:53;;;;;;;15.97;3.77;;;16.20;99.90;;;;;;5048667;28;20430;-77
2022/07/22 01:36:20;;;;;;;13.17;3.47;;;16.20;99.90;;;;;;5047781;28;20037;-77
2022/07/22 01:38:48;;;;;;;15.47;3.90;;;16.20;99.90;;;;;;5045276;28;20052;-78
2022/07/22 01:41:13;;;;;;;18.73;3.87;;;16.20;99.90;;;;;;5059785;28;20504;-77
2022/07/22 01:43:39;;;;;;;13.07;4.07;;;16.30;99.90;;;;;;5042107;28;20033;-78
2022/07/22 01:46:06;;;;;;;18.57;3.93;;;16.20;99.90;;;;;;5047603;28;20074;-78
2022/07/22 01:48:36;;;;;;;16.90;3.90;;;16.20;99.90;;;;;;5050132;28;20043;-78
2022/07/22 01:51:03;;;;;;;14.53;4.17;;;16.20;99.90;;;;;;5043836;28;20036;-77
2022/07/22 01:53:28;;;;;;;13.37;3.80;;;16.10;99.90;;;;;;5050948;28;20036;-77
2022/07/22 01:55:56;;;;;;;19.20;4.07;;;16.20;99.90;;;;;;5032860;28;20732;-78
2022/07/22 01:58:22;;;;;;;14.53;3.50;;;16.20;99.90;;;;;;5033248;28;20041;-77
2022/07/22 02:00:48;;;;;;;15.50;3.43;;;16.10;99.90;;;;;;5047970;28;20090;-77
2022/07/22 02:03:14;;;;;;;17.73;3.53;;;16.10;99.90;;;;;;5051105;28;20048;-78
2022/07/22 02:05:40;;;;;;;12.90;3.50;;;16.10;99.90;;;;;;5034654;28;20461;-77
2022/07/22 02:08:17;;;;;;;14.53;3.87;;;16.10;99.90;;;;;;5048316;28;20043;-78
2022/07/22 02:11:05;;;;;;;14.53;3.40;;;16.10;99.90;;;;;;5042376;28;20072;-77
2022/07/22 02:13:31;;;;;;;15.73;3.20;;;16.10;99.90;;;;;;5048541;28;20040;-77
2022/07/22 02:15:57;;;;;;;17.27;3.23;;;16.10;99.90;;;;;;5049964;28;20492;-78
2022/07/22 02:18:23;;;;;;;9.23;3.03;;;16.10;99.90;;;;;;5033817;28;20097;-77
2022/07/22 02:20:49;;;;;;;13.03;3.20;;;16.10;99.90;;;;;;5067602;28;20051;-78
2022/07/22 02:23:15;;;;;;;11.50;2.87;;;16.10;99.90;;;;;;5033011;28;20060;-78
2022/07/22 02:25:42;;;;;;;11.17;3.23;;;16.00;99.90;;;;;;5050887;28;20139;-78
2022/07/22 02:28:09;;;;;;;12.93;2.77;;;16.00;99.90;;;;;;5065841;28;20079;-78
2022/07/22 02:30:35;;;;;;;10.27;2.67;;;16.00;99.90;;;;;;5050951;28;20036;-78
2022/07/22 02:33:01;;;;;;;15.00;2.87;;;16.00;99.90;;;;;;5034199;28;20063;-77
2022/07/22 02:35:27;;;;;;;10.87;2.60;;;16.00;99.90;;;;;;5050539;28;20040;-78
2022/07/22 02:37:53;;;;;;;9.13;2.53;;;16.00;99.90;;;;;;5065405;28;20044;-78
2022/07/22 02:40:19;;;;;;;9.23;3.00;;;16.00;99.90;;;;;;5050523;28;20086;-80
2022/07/22 02:42:45;;;;;;;11.07;2.80;;;15.90;99.90;;;;;;5050960;28;20686;-78
2022/07/22 02:45:12;;;;;;;10.23;2.80;;;16.00;99.90;;;;;;5049855;28;20040;-78
2022/07/22 02:47:46;;;;;;;12.40;3.07;;;15.90;99.90;;;;;;5039142;28;20041;-78
2022/07/22 02:50:12;;;;;;;12.13;3.13;;;15.90;99.90;;;;;;5027207;28;20048;-79
2022/07/22 02:52:37;;;;;;;8.37;2.47;;;15.90;99.90;;;;;;5041926;28;20415;-78
2022/07/22 02:55:05;;;;;;;10.23;3.13;;;15.90;99.90;;;;;;5034307;28;20699;-77
2022/07/22 02:57:31;;;;;;;8.47;2.60;;;15.90;99.90;;;;;;5048252;28;20045;-77
2022/07/22 02:59:57;;;;;;;11.83;2.40;;;15.90;99.90;;;;;;5057816;28;20048;-77
2022/07/22 03:02:25;;;;;;;11.17;2.53;;;15.90;99.90;;;;;;5032281;28;20439;-78
2022/07/22 03:04:50;;;;;;;12.90;3.00;;;15.90;99.90;;;;;;5033287;28;20058;-78
2022/07/22 03:07:17;;;;;;;11.40;3.30;;;15.90;99.90;;;;;;5033232;28;20045;-78
2022/07/22 03:09:45;;;;;;;11.17;2.90;;;15.80;99.90;;;;;;5064502;28;21879;-78
2022/07/22 03:12:11;;;;;;;8.30;2.53;;;15.80;99.90;;;;;;5047803;28;20064;-78
2022/07/22 03:14:36;;;;;;;9.57;2.30;;;15.80;99.90;;;;;;5047156;28;20082;-78
2022/07/22 03:17:02;;;;;;;10.80;3.13;;;15.80;99.90;;;;;;5050805;28;20040;-78
2022/07/22 03:19:29;;;;;;;11.37;2.70;;;15.80;99.90;;;;;;5033686;28;20046;-78
2022/07/22 03:21:56;;;;;;;9.47;2.83;;;15.80;99.90;;;;;;5050232;28;20454;-79
2022/07/22 03:24:22;;;;;;;15.97;3.03;;;15.90;99.90;;;;;;5050642;28;20036;-78
2022/07/22 03:26:48;;;;;;;8.67;2.50;;;15.90;99.90;;;;;;5050112;28;20062;-78
2022/07/22 03:29:13;;;;;;;12.07;2.50;;;15.90;99.90;;;;;;5033554;28;20055;-78
2022/07/22 03:31:39;;;;;;;7.53;2.33;;;15.80;99.90;;;;;;5046925;28;20083;-78
2022/07/22 03:34:05;;;;;;;10.83;2.80;;;15.90;99.90;;;;;;5050019;28;20067;-79
2022/07/22 03:36:37;;;;;;;8.23;2.10;;;15.80;99.90;;;;;;5052386;28;20045;-79
2022/07/22 03:39:03;;;;;;;8.93;2.57;;;15.80;99.90;;;;;;5032045;28;20089;-79
2022/07/22 03:41:29;;;;;;;7.73;2.60;;;15.80;99.90;;;;;;5039452;28;20033;-79
2022/07/22 03:43:55;;;;;;;9.97;2.50;;;15.80;99.90;;;;;;5039360;28;20490;-78
2022/07/22 03:46:20;;;;;;;11.53;2.20;;;15.80;99.90;;;;;;5032774;28;20041;-78
2022/07/22 03:48:46;;;;;;;7.30;2.50;;;15.80;99.90;;;;;;5044992;28;20051;-79
2022/07/22 03:51:13;;;;;;;12.80;3.07;;;15.80;99.90;;;;;;5044422;28;21569;-78
2022/07/22 03:53:40;;;;;;;9.67;2.40;;;15.80;99.90;;;;;;5044352;28;20041;-78
2022/07/22 03:56:07;;;;;;;7.70;2.70;;;15.80;99.90;;;;;;5050131;28;20508;-79
2022/07/22 03:58:34;;;;;;;8.37;2.90;;;15.80;99.90;;;;;;5047414;28;20520;-78
2022/07/22 04:01:00;;;;;;;11.33;3.00;;;15.80;99.90;;;;;;5033104;28;20083;-78
2022/07/22 04:03:25;;;;;;;10.30;2.73;;;15.80;99.90;;;;;;5048373;28;20485;-78
2022/07/22 04:06:06;;;;;;;13.20;3.10;;;15.80;99.90;;;;;;5035376;28;20044;-79
2022/07/22 04:08:41;;;;;;;8.80;2.90;;;15.80;99.90;;;;;;5032610;28;20052;-78
2022/07/22 04:11:08;;;;;;;10.33;2.83;;;15.80;99.90;;;;;;5047226;28;20051;-79
2022/07/22 04:13:34;;;;;;;9.90;2.50;;;15.80;99.90;;;;;;5049050;28;20529;-79
2022/07/22 04:16:00;;;;;;;13.13;2.80;;;15.90;99.90;;;;;;5048770;28;20040;-78
2022/07/22 04:18:30;;;;;;;12.13;2.90;;;15.80;99.90;;;;;;5048026;28;20566;-78
2022/07/22 04:20:56;;;;;;;9.97;3.27;;;15.80;99.90;;;;;;5044284;28;20496;-79
2022/07/22 04:23:21;;;;;;;9.53;2.83;;;15.90;99.90;;;;;;5042144;28;20047;-78
2022/07/22 04:25:50;;;;;;;6.80;2.63;;;15.80;99.90;;;;;;5044237;28;20132;-79
2022/07/22 04:28:16;;;;;;;10.23;3.20;;;15.90;99.90;;;;;;5048823;28;20526;-78
2022/07/22 04:30:42;;;;;;;11.63;2.80;;;15.90;99.90;;;;;;5032073;28;20411;-78
2022/07/22 04:33:07;;;;;;;18.40;3.57;;;15.90;99.90;;;;;;5050181;28;20041;-79
2022/07/22 04:35:34;;;;;;;9.30;2.80;;;15.80;99.90;;;;;;5049244;28;20058;-78
2022/07/22 04:38:08;;;;;;;14.57;3.40;;;15.90;99.90;;;;;;5035055;28;20496;-78
2022/07/22 04:40:36;;;;;;;14.07;3.57;;;15.90;99.90;;;;;;5047968;28;20047;-78
2022/07/22 04:43:03;;;;;;;10.63;3.10;;;15.90;99.90;;;;;;5048415;28;20458;-78
2022/07/22 04:45:29;;;;;;;5.97;2.60;;;15.90;99.90;;;;;;5063212;28;20048;-79
2022/07/22 04:47:55;;;;;;;8.63;3.10;;;15.90;99.90;;;;;;5049579;28;20048;-79
2022/07/22 04:50:21;;;;;;;11.93;3.30;;;15.90;99.90;;;;;;5047224;28;20039;-79
2022/07/22 04:52:53;;;;;;;9.17;2.70;;;15.90;99.90;;;;;;5028053;28;20048;-79
2022/07/22 04:55:19;;;;;;;14.07;3.80;;;16.00;99.90;;;;;;5031931;28;20078;-78
2022/07/22 04:57:45;;;;;;;10.50;2.87;;;16.00;99.90;;;;;;5049683;28;20455;-78
2022/07/22 05:00:15;;;;;;;9.97;2.73;;;16.00;99.90;;;;;;5032190;28;20076;-79
2022/07/22 05:02:48;;;;;;;10.97;2.60;;;16.00;99.90;;;;;;5030734;28;20084;-78
2022/07/22 05:05:14;;;;;;;11.10;2.80;;;16.00;99.90;;;;;;5027644;28;20126;-78
2022/07/22 05:07:40;;;;;;;10.90;2.70;;;16.00;99.90;;;;;;5057563;28;20043;-78
2022/07/22 05:10:07;;;;;;;8.53;2.30;;;16.00;99.90;;;;;;5031260;28;20040;-79
2022/07/22 05:12:32;;;;;;;8.93;2.40;;;16.00;99.90;;;;;;5048068;28;20040;-79
2022/07/22 05:14:59;;;;;;;8.43;2.23;;;16.00;99.90;;;;;;5048024;28;20043;-79
2022/07/22 05:17:26;;;;;;;6.97;2.40;;;16.10;99.90;;;;;;5047338;28;20045;-78
2022/07/22 05:20:03;;;;;;;7.80;2.30;;;16.10;99.90;;;;;;5051006;28;20044;-79
2022/07/22 05:22:29;;;;;;;11.50;2.33;;;16.20;99.90;;;;;;5050190;28;20551;-78
2022/07/22 05:24:54;;;;;;;8.63;2.00;;;16.20;99.90;;;;;;5053016;28;20132;-78
2022/07/22 05:27:20;;;;;;;8.97;2.10;;;16.20;99.90;;;;;;5051708;28;20043;-79
2022/07/22 05:29:46;;;;;;;7.00;1.90;;;16.20;99.90;;;;;;5052014;28;20090;-78
2022/07/22 05:32:12;;;;;;;6.97;2.17;;;16.30;99.90;;;;;;5046155;28;20047;-79
2022/07/22 05:34:40;;;;;;;7.30;1.83;;;16.30;99.90;;;;;;5067726;28;20514;-78
2022/07/22 05:37:06;;;;;;;7.00;2.33;;;16.40;99.90;;;;;;5036320;28;20048;-79
2022/07/22 05:39:32;;;;;;;5.83;1.80;;;16.40;99.90;;;;;;5033188;28;20036;-78
2022/07/22 05:41:58;;;;;;;7.13;2.60;;;16.40;99.90;;;;;;5033446;28;20456;-78
2022/07/22 05:44:24;;;;;;;13.43;2.23;;;16.40;99.90;;;;;;5050353;28;20127;-75
2022/07/22 05:46:49;;;;;;;7.53;2.00;;;16.40;99.90;;;;;;5051582;28;20041;-76
2022/07/22 05:49:15;;;;;;;4.73;1.73;;;16.50;99.90;;;;;;5052705;28;20048;-75
2022/07/22 05:51:53;;;;;;;8.07;2.00;;;16.50;99.90;;;;;;5050044;28;20044;-75
2022/07/22 05:54:19;;;;;;;9.83;2.67;;;16.50;99.90;;;;;;5042855;28;20418;-76
2022/07/22 05:56:45;;;;;;;10.33;2.30;;;16.50;99.90;;;;;;5043798;28;20052;-75
2022/07/22 05:59:10;;;;;;;9.33;3.00;;;16.50;99.90;;;;;;5060371;28;20122;-75
2022/07/22 06:01:36;;;;;;;11.77;2.40;;;16.50;99.90;;;;;;5044687;28;20037;-76
2022/07/22 06:04:14;;;;;;;10.87;2.20;;;16.40;99.90;;;;;;5031166;28;20048;-77
2022/07/22 06:06:40;;;;;;;7.97;2.53;;;16.50;99.90;;;;;;5049472;28;20491;-76
2022/07/22 06:09:07;;;;;;;10.40;2.47;;;16.50;99.90;;;;;;5044028;28;20044;-76
2022/07/22 06:11:33;;;;;;;8.13;2.03;;;16.50;99.90;;;;;;5033159;28;20106;-75
2022/07/22 06:13:59;;;;;;;14.40;2.77;;;16.60;99.90;;;;;;5064395;28;20068;-75
2022/07/22 06:16:24;;;;;;;7.10;2.40;;;16.60;99.90;;;;;;5047328;28;20044;-77
2022/07/22 06:18:54;;;;;;;7.60;2.00;;;16.70;99.90;;;;;;5031045;28;20048;-77
2022/07/22 06:21:20;;;;;;;8.50;2.30;;;16.70;99.90;;;;;;5057423;28;20547;-77
2022/07/22 06:23:46;;;;;;;6.70;2.37;;;16.80;99.90;;;;;;5042381;28;20042;-76
2022/07/22 06:26:13;;;;;;;9.63;2.70;;;16.90;99.90;;;;;;5047243;28;20505;-76
2022/07/22 06:28:39;;;;;;;9.50;2.43;;;16.90;99.90;;;;;;5044845;28;20456;-77
2022/07/22 06:31:05;;;;;;;7.90;2.50;;;16.90;99.90;;;;;;5042449;28;20104;-76
2022/07/22 06:33:33;;;;;;;7.33;2.10;;;17.00;99.90;;;;;;5022103;28;20044;-77
2022/07/22 06:36:00;;;;;;;6.87;2.27;;;17.00;99.90;;;;;;5045410;28;20079;-76
2022/07/22 06:38:27;;;;;;;4.00;1.70;;;17.00;99.90;;;;;;5030620;28;20732;-75
2022/07/22 06:41:24;;;;;;;6.07;2.13;;;17.10;99.90;;;;;;4993643;28;20512;-76
2022/07/22 06:44:02;;;;;;;9.07;2.50;;;17.10;99.90;;;;;;5059783;28;20052;-76
2022/07/22 06:46:35;;;;;;;9.05;2.33;;;17.10;99.90;;;;;;5041632;28;20045;-76
2022/07/22 06:49:01;;;;;;;7.97;2.00;;;17.20;99.90;;;;;;5031003;28;20079;-76
2022/07/22 06:51:31;;;;;;;8.30;2.00;;;17.20;99.90;;;;;;5036881;28;20052;-75
2022/07/22 06:53:57;;;;;;;5.63;2.10;;;17.30;99.90;;;;;;5064404;28;20048;-76
2022/07/22 06:56:25;;;;;;;7.80;1.93;;;17.20;99.90;;;;;;5059179;28;20049;-76
2022/07/22 06:58:51;;;;;;;9.97;1.83;;;17.30;99.90;;;;;;5020021;28;20140;-75
2022/07/22 07:01:17;;;;;;;7.70;1.80;;;17.30;99.90;;;;;;5043479;28;20037;-76
2022/07/22 07:03:52;;;;;;;10.87;2.30;;;17.40;99.90;;;;;;5044431;28;20504;-76
2022/07/22 07:06:18;;;;;;;7.97;2.07;;;17.40;99.90;;;;;;5028819;28;20496;-76
2022/07/22 07:09:16;;;;;;;8.20;2.23;;;17.40;99.90;;;;;;5042529;28;20036;-76
2022/07/22 07:11:52;;;;;;;8.83;2.00;;;17.50;99.90;;;;;;5040199;28;20081;-76
2022/07/22 07:14:38;;;;;;;7.33;1.80;;;17.60;99.90;;;;;;5059056;28;20099;-76
2022/07/22 07:17:04;;;;;;;6.93;1.70;;;17.70;99.90;;;;;;5038913;28;20068;-75
2022/07/22 07:19:29;;;;;;;7.47;1.90;;;17.80;99.90;;;;;;5027135;28;20044;-76
2022/07/22 07:21:55;;;;;;;6.27;1.80;;;17.90;99.90;;;;;;5039798;28;20041;-76
2022/07/22 07:24:21;;;;;;;7.37;1.67;;;17.90;99.90;;;;;;5060936;28;20127;-77
2022/07/22 07:26:47;;;;;;;8.70;1.93;;;18.00;99.90;;;;;;5044256;28;20037;-76
2022/07/22 07:29:14;;;;;;;8.17;1.80;;;18.00;99.90;;;;;;5043618;28;20445;-76
2022/07/22 07:31:41;;;;;;;6.70;1.60;;;18.10;99.90;;;;;;5042020;28;20045;-77
2022/07/22 07:34:13;;;;;;;7.87;1.90;;;18.20;99.90;;;;;;5045971;28;20426;-76
2022/07/22 07:36:38;;;;;;;8.83;1.80;;;18.30;99.90;;;;;;5044267;28;20115;-76
2022/07/22 07:39:04;;;;;;;7.60;1.77;;;18.30;99.90;;;;;;5040263;28;20411;-76
2022/07/22 07:41:30;;;;;;;5.57;1.90;;;18.40;99.90;;;;;;5044832;28;20032;-76
2022/07/22 07:43:56;;;;;;;8.83;1.70;;;18.40;99.90;;;;;;5027322;28;20684;-76
2022/07/22 07:46:23;;;;;;;5.83;1.60;;;18.50;99.90;;;;;;5041493;28;20123;-76
2022/07/22 07:48:50;;;;;;;3.70;1.27;;;18.60;99.90;;;;;;5044106;28;20109;-75
2022/07/22 07:51:16;;;;;;;6.90;1.90;;;18.60;99.90;;;;;;5040802;28;20068;-75
2022/07/22 07:53:42;;;;;;;10.00;2.17;;;18.60;99.90;;;;;;5045634;28;20057;-76
2022/07/22 07:56:07;;;;;;;8.40;2.00;;;18.60;99.90;;;;;;5029442;28;20139;-76
2022/07/22 07:58:34;;;;;;;7.30;1.43;;;18.60;99.90;;;;;;5035758;28;20055;-75
2022/07/22 08:00:59;;;;;;;9.00;1.87;;;18.60;99.90;;;;;;5045570;28;20040;-75
2022/07/22 08:03:27;;;;;;;4.33;1.50;;;18.50;99.90;;;;;;5045053;28;20041;-75
2022/07/22 08:05:53;;;;;;;3.90;1.53;;;18.50;99.90;;;;;;5030545;28;20044;-77
2022/07/22 08:08:22;;;;;;;9.50;1.93;;;18.60;99.90;;;;;;5043431;28;20048;-76
2022/07/22 08:10:49;;;;;;;6.70;1.60;;;18.60;99.90;;;;;;5045638;28;20037;-75
2022/07/22 08:13:50;;;;;;;6.80;1.57;;;18.60;99.90;;;;;;5053493;28;20424;-76
2022/07/22 08:16:42;;;;;;;5.27;1.53;;;18.60;99.90;;;;;;5057734;28;20068;-76
2022/07/22 08:19:09;;;;;;;5.53;1.93;;;18.70;99.90;;;;;;5028506;28;20063;-75
2022/07/22 08:21:35;;;;;;;6.43;1.60;;;18.70;99.90;;;;;;5040639;28;20087;-75
2022/07/22 08:24:14;;;;;;;8.43;2.00;;;18.70;99.90;;;;;;5061287;28;20041;-76
2022/07/22 08:26:40;;;;;;;8.53;1.60;;;18.80;99.90;;;;;;5051377;28;20040;-75
2022/07/22 08:29:09;;;;;;;6.47;1.40;;;18.90;99.90;;;;;;5046350;28;20048;-76
2022/07/22 08:31:36;;;;;;;5.00;1.40;;;18.90;99.90;;;;;;5042697;28;20059;-75
2022/07/22 08:34:06;;;;;;;7.43;1.60;;;18.90;99.90;;;;;;5046526;28;20090;-75
2022/07/22 08:36:33;;;;;;;5.03;1.40;;;18.90;99.90;;;;;;5043168;28;20101;-76
2022/07/22 08:38:59;;;;;;;6.67;1.70;;;18.80;99.90;;;;;;5040007;28;20048;-76
2022/07/22 08:41:26;;;;;;;4.07;1.40;;;18.90;99.90;;;;;;5039608;28;20499;-77
2022/07/22 08:43:52;;;;;;;9.57;1.80;;;18.90;99.90;;;;;;5065093;28;20068;-75
2022/07/22 08:46:18;;;;;;;4.13;1.13;;;18.90;99.90;;;;;;5038940;28;20036;-76
2022/07/22 08:49:07;;;;;;;8.57;1.70;;;18.90;99.90;;;;;;5057409;28;20059;-74
2022/07/22 08:51:45;;;;;;;4.83;1.40;;;18.90;99.90;;;;;;5032744;28;20050;-76
2022/07/22 08:54:17;;;;;;;6.13;1.20;;;18.80;99.90;;;;;;5046324;28;20044;-76
2022/07/22 08:56:46;;;;;;;4.07;1.30;;;18.70;99.90;;;;;;5035509;28;20045;-75
2022/07/22 08:59:12;;;;;;;5.27;1.70;;;18.70;99.90;;;;;;5045069;28;20517;-76
2022/07/22 09:01:39;;;;;;;8.00;1.60;;;18.70;99.90;;;;;;5048206;28;20115;-76
2022/07/22 09:04:05;;;;;;;7.57;1.73;;;18.70;99.90;;;;;;5046391;28;20053;-77
2022/07/22 09:06:34;;;;;;;5.53;1.63;;;18.80;99.90;;;;;;5047682;28;20370;-76
2022/07/22 09:09:05;;;;;;;8.10;1.73;;;18.80;99.90;;;;;;5043298;28;20488;-76
2022/07/22 09:12:04;;;;;;;10.63;1.70;;;18.80;99.90;;;;;;5049105;28;20141;-76
2022/07/22 09:14:52;;;;;;;8.27;1.57;;;18.80;99.90;;;;;;5043047;28;20047;-76
2022/07/22 09:17:38;;;;;;;7.13;1.40;;;18.80;99.90;;;;;;5066263;28;20057;-76
2022/07/22 09:20:20;;;;;;;7.38;1.52;;;18.80;99.90;;;;;;5042969;28;20109;-77
2022/07/22 09:23:11;;;;;;;3.43;1.23;;;19.00;99.90;;;;;;5063468;28;20114;-76
2022/07/22 09:25:41;;;;;;;4.63;1.23;;;19.00;99.90;;;;;;5037349;28;20127;-77
2022/07/22 09:28:24;;;;;;;5.23;1.40;;;19.10;99.90;;;;;;5044464;28;20400;-76
2022/07/22 09:31:29;;;;;;;6.67;1.73;;;19.20;99.90;;;;;;5053038;28;20431;-76
2022/07/22 09:34:03;;;;;;;3.40;1.30;;;19.10;99.90;;;;;;5032144;28;20036;-76
2022/07/22 09:36:30;;;;;;;5.47;1.77;;;19.10;99.90;;;;;;5042975;28;20427;-76
2022/07/22 09:38:57;;;;;;;6.13;1.53;;;19.20;99.90;;;;;;5043620;28;20045;-76
2022/07/22 09:41:25;;;;;;;5.30;1.80;;;19.20;99.90;;;;;;5030502;28;20065;-77
2022/07/22 09:43:51;;;;;;;6.73;1.40;;;19.20;99.90;;;;;;5032899;28;20080;-76
2022/07/22 09:46:32;;;;;;;7.10;1.47;;;19.20;99.90;;;;;;5035767;28;20049;-74
2022/07/22 09:49:30;;;;;;;3.83;1.60;;;19.20;99.90;;;;;;5038429;28;20059;-73
2022/07/22 09:52:16;;;;;;;5.87;1.63;;;19.10;99.90;;;;;;5048841;28;20052;-76
2022/07/22 09:55:00;;;;;;;4.22;1.27;;;19.10;99.90;;;;;;5062622;28;20040;-76
2022/07/22 09:57:27;;;;;;;6.03;1.60;;;19.10;99.90;;;;;;5032341;28;20048;-75
2022/07/22 09:59:53;;;;;;;6.00;1.30;;;19.10;99.90;;;;;;5043759;28;20619;-76
2022/07/22 10:02:45;;;;;;;6.27;1.57;;;19.10;99.90;;;;;;5057121;28;20430;-75
2022/07/22 10:05:13;;;;;;;7.27;1.27;;;19.10;99.90;;;;;;5024597;28;20052;-76
2022/07/22 10:07:41;;;;;;;7.13;1.43;;;19.20;99.90;;;;;;5048231;28;20037;-76
2022/07/22 10:10:09;;;;;;;8.57;1.73;;;19.20;99.90;;;;;;5047210;28;20041;-75
2022/07/22 10:12:36;;;;;;;4.90;1.47;;;19.30;99.90;;;;;;5046365;28;20081;-77
2022/07/22 10:15:03;;;;;;;5.23;1.30;;;19.40;99.90;;;;;;5065404;28;20041;-76
2022/07/22 10:17:30;;;;;;;9.00;1.70;;;19.40;99.90;;;;;;5047844;28;20145;-75
2022/07/22 10:19:57;;;;;;;3.20;1.20;;;19.40;99.90;;;;;;5044766;28;20044;-76
2022/07/22 10:22:49;;;;;;;6.97;1.30;;;19.40;99.90;;;;;;5049225;28;20090;-78
2022/07/22 10:25:18;;;;;;;6.63;1.77;;;19.30;99.90;;;;;;5052953;28;20090;-79
2022/07/22 10:27:46;;;;;;;3.70;1.50;;;19.30;99.90;;;;;;5062518;28;20437;-79
2022/07/22 10:30:14;;;;;;;8.37;1.70;;;19.30;99.90;;;;;;5069688;28;20131;-79
2022/07/22 10:32:40;;;;;;;4.77;1.70;;;19.20;99.90;;;;;;5070017;28;20041;-78
2022/07/22 10:35:23;;;;;;;6.80;1.57;;;19.20;99.90;;;;;;5050523;28;20091;-78
2022/07/22 10:37:54;;;;;;;4.70;1.50;;;19.20;99.90;;;;;;5052174;28;20044;-77
2022/07/22 10:40:22;;;;;;;4.27;1.57;;;19.20;99.90;;;;;;5045725;28;20044;-79
2022/07/22 10:43:13;;;;;;;5.17;1.60;;;19.20;99.90;;;;;;5059806;28;20112;-78
2022/07/22 10:45:43;;;;;;;5.33;1.33;;;19.30;99.90;;;;;;5035703;28;20052;-79
2022/07/22 10:48:10;;;;;;;6.80;1.50;;;19.40;99.90;;;;;;5047266;28;20086;-78
2022/07/22 10:50:50;;;;;;;9.13;1.80;;;19.40;99.90;;;;;;5061921;28;20127;-78
2022/07/22 10:53:19;;;;;;;6.50;1.90;;;19.40;99.90;;;;;;5034316;28;20066;-78
2022/07/22 10:56:06;;;;;;;10.57;1.60;;;19.40;99.90;;;;;;5062198;28;20116;-78
2022/07/22 10:58:57;;;;;;;4.93;1.47;;;19.40;99.90;;;;;;5044063;28;20060;-77
2022/07/22 11:01:26;;;;;;;7.60;1.43;;;19.50;99.90;;;;;;5052609;28;20093;-79
2022/07/22 11:03:52;;;;;;;3.10;1.13;;;19.40;99.90;;;;;;5043716;28;20126;-78
2022/07/22 11:06:21;;;;;;;5.53;1.67;;;19.40;99.90;;;;;;5036063;28;20047;-78
2022/07/22 11:08:50;;;;;;;3.67;1.00;;;19.50;99.90;;;;;;5063949;28;20045;-79
2022/07/22 11:11:16;;;;;;;4.97;1.20;;;19.50;99.90;;;;;;5051390;28;20049;-77
2022/07/22 11:13:44;;;;;;;6.10;1.10;;;19.60;99.90;;;;;;5053575;28;20052;-78
2022/07/22 11:16:23;;;;;;;4.47;1.13;;;19.60;99.90;;;;;;5061535;28;20492;-78
2022/07/22 11:18:53;;;;;;;6.77;1.13;;;19.60;99.90;;;;;;5065218;28;20130;-77
2022/07/22 11:21:21;;;;;;;6.93;1.30;;;19.70;99.90;;;;;;5063447;28;20496;-79
2022/07/22 11:23:48;;;;;;;4.30;1.00;;;19.70;99.90;;;;;;5061490;28;20047;-77
2022/07/22 11:26:17;;;;;;;4.47;1.13;;;19.80;99.90;;;;;;5051889;28;20048;-78
2022/07/22 11:28:44;;;;;;;5.23;1.00;;;19.80;99.90;;;;;;5036946;28;20075;-77
2022/07/22 11:31:14;;;;;;;3.77;1.10;;;19.80;99.90;;;;;;5047611;28;20067;-78
2022/07/22 11:33:42;;;;;;;4.17;1.07;;;19.80;99.90;;;;;;5052646;28;20507;-78
2022/07/22 11:36:11;;;;;;;5.27;0.80;;;19.90;99.90;;;;;;5058794;28;20474;-78
2022/07/22 11:38:46;;;;;;;5.53;1.00;;;19.90;99.90;;;;;;5045360;28;20064;-78
2022/07/22 11:41:13;;;;;;;2.67;1.00;;;20.00;99.90;;;;;;5062570;28;20173;-75
2022/07/22 11:43:41;;;;;;;5.50;1.03;;;20.10;99.90;;;;;;5061463;28;20051;-75
2022/07/22 11:46:06;;;;;;;5.33;1.37;;;20.20;99.90;;;;;;5065984;28;20393;-76
2022/07/22 11:48:32;;;;;;;6.27;1.20;;;20.20;99.90;;;;;;5064893;28;20044;-76
2022/07/22 11:51:04;;;;;;;5.37;1.27;;;20.20;99.90;;;;;;5063624;28;20550;-76
2022/07/22 11:53:30;;;;;;;5.63;0.93;;;20.20;99.90;;;;;;5050667;28;20048;-77
2022/07/22 11:55:57;;;;;;;4.70;1.40;;;20.20;99.90;;;;;;5065996;28;20131;-75
2022/07/22 11:58:38;;;;;;;3.93;1.10;;;20.10;99.90;;;;;;5047708;28;20127;-76
2022/07/22 12:01:04;;;;;;;4.70;1.17;;;20.00;99.90;;;;;;5054725;28;21098;-81
2022/07/22 12:03:30;;;;;;;4.03;1.53;;;19.90;99.90;;;;;;5045639;28;20140;-76
2022/07/22 12:05:56;;;;;;;3.53;1.40;;;19.90;99.90;;;;;;5023822;28;20051;-76
2022/07/22 12:08:23;;;;;;;3.40;1.17;;;19.90;99.90;;;;;;5060139;28;20044;-76
2022/07/22 12:10:49;;;;;;;4.70;1.17;;;19.90;99.90;;;;;;5040121;28;20068;-79
2022/07/22 12:13:15;;;;;;;5.50;1.30;;;19.90;99.90;;;;;;5050851;28;20045;-75
2022/07/22 12:15:41;;;;;;;4.57;1.30;;;19.80;99.90;;;;;;5045265;28;20048;-76
2022/07/22 12:18:17;;;;;;;2.67;0.90;;;19.70;99.90;;;;;;5060461;28;20044;-75
2022/07/22 12:20:44;;;;;;;6.30;1.30;;;19.60;99.90;;;;;;5042435;28;20045;-76
2022/07/22 12:23:10;;;;;;;3.77;1.27;;;19.60;99.90;;;;;;5034413;28;20045;-77
2022/07/22 12:25:54;;;;;;;3.17;1.20;;;19.50;99.90;;;;;;5044088;28;20059;-79
2022/07/22 12:28:19;;;;;;;4.40;1.52;;;19.40;99.90;;;;;;5043005;28;20397;-77
2022/07/22 12:30:46;;;;;;;3.67;1.40;;;19.50;99.90;;;;;;5059568;28;20047;-77
2022/07/22 12:33:14;;;;;;;4.30;1.20;;;19.50;99.90;;;;;;5042001;28;20045;-76
2022/07/22 12:35:39;;;;;;;2.60;1.30;;;19.70;99.90;;;;;;5056680;28;20171;-77
2022/07/22 12:38:07;;;;;;;2.00;0.83;;;19.90;99.90;;;;;;5057999;28;20547;-79
2022/07/22 12:40:33;;;;;;;3.73;1.10;;;20.00;99.90;;;;;;5042437;28;20099;-78
2022/07/22 12:43:03;;;;;;;5.70;1.30;;;20.20;99.90;;;;;;5056922;28;20036;-78
2022/07/22 12:45:30;;;;;;;5.07;1.30;;;20.30;99.90;;;;;;5027143;28;20049;-76
2022/07/22 12:47:59;;;;;;;3.67;1.27;;;20.30;99.90;;;;;;5057277;28;20094;-78
2022/07/22 12:50:27;;;;;;;5.93;1.23;;;20.40;99.90;;;;;;5041741;28;20044;-75
2022/07/22 12:52:55;;;;;;;4.20;1.40;;;20.30;99.90;;;;;;5041757;28;20049;-76